sensor_id;sensor_type;location;lat;lon;timestamp;P1;durP1;ratioP1;P2;durP2;ratioP2
64615;SDS011;51027;42.162;24.754;2023-06-22T03:32:01;23.25;;;12.57;;
64615;SDS011;51027;42.162;24.754;2023-06-22T03:34:26;22.90;;;12.68;;
64615;SDS011;51027;42.162;24.754;2023-06-22T03:36:52;25.20;;;14.10;;
64615;SDS011;51027;42.162;24.754;2023-06-22T03:39:17;19.48;;;10.55;;
64615;SDS011;51027;42.162;24.754;2023-06-22T03:41:46;22.27;;;12.05;;
64615;SDS011;51027;42.162;24.754;2023-06-22T03:44:11;21.63;;;12.48;;
64615;SDS011;51027;42.162;24.754;2023-06-22T03:46:37;23.02;;;13.10;;
64615;SDS011;51027;42.162;24.754;2023-06-22T03:49:03;23.75;;;13.48;;
64615;SDS011;51027;42.162;24.754;2023-06-22T03:51:29;24.73;;;13.65;;
64615;SDS011;51027;42.162;24.754;2023-06-22T03:53:54;26.17;;;13.90;;
64615;SDS011;51027;42.162;24.754;2023-06-22T03:56:20;23.95;;;13.27;;
64615;SDS011;51027;42.162;24.754;2023-06-22T03:58:46;23.52;;;14.05;;
64615;SDS011;51027;42.162;24.754;2023-06-22T04:01:11;26.75;;;14.48;;
64615;SDS011;51027;42.162;24.754;2023-06-22T04:03:37;24.73;;;13.55;;
64615;SDS011;51027;42.162;24.754;2023-06-22T04:06:03;24.23;;;13.35;;
64615;SDS011;51027;42.162;24.754;2023-06-22T04:08:29;22.25;;;13.18;;
64615;SDS011;51027;42.162;24.754;2023-06-22T04:10:55;22.02;;;12.20;;
64615;SDS011;51027;42.162;24.754;2023-06-22T04:13:20;21.35;;;12.13;;
64615;SDS011;51027;42.162;24.754;2023-06-22T04:15:46;21.55;;;12.75;;
64615;SDS011;51027;42.162;24.754;2023-06-22T04:18:12;20.88;;;12.05;;
64615;SDS011;51027;42.162;24.754;2023-06-22T04:20:38;22.83;;;13.30;;
64615;SDS011;51027;42.162;24.754;2023-06-22T04:23:04;22.35;;;11.63;;
64615;SDS011;51027;42.162;24.754;2023-06-22T04:25:29;21.55;;;11.73;;
64615;SDS011;51027;42.162;24.754;2023-06-22T04:27:55;20.95;;;12.00;;
64615;SDS011;51027;42.162;24.754;2023-06-22T04:30:20;21.48;;;12.52;;
64615;SDS011;51027;42.162;24.754;2023-06-22T04:32:45;22.08;;;12.30;;
64615;SDS011;51027;42.162;24.754;2023-06-22T04:35:20;22.52;;;12.52;;
64615;SDS011;51027;42.162;24.754;2023-06-22T04:37:47;22.55;;;12.15;;
64615;SDS011;51027;42.162;24.754;2023-06-22T04:40:14;21.00;;;12.63;;
64615;SDS011;51027;42.162;24.754;2023-06-22T04:42:40;22.17;;;12.65;;
64615;SDS011;51027;42.162;24.754;2023-06-22T04:45:07;23.33;;;12.65;;
64615;SDS011;51027;42.162;24.754;2023-06-22T04:47:35;21.95;;;12.48;;
64615;SDS011;51027;42.162;24.754;2023-06-22T04:50:04;22.83;;;12.27;;
64615;SDS011;51027;42.162;24.754;2023-06-22T04:52:31;21.27;;;11.95;;
64615;SDS011;51027;42.162;24.754;2023-06-22T04:54:56;23.73;;;12.77;;
64615;SDS011;51027;42.162;24.754;2023-06-22T04:57:22;23.02;;;12.48;;
64615;SDS011;51027;42.162;24.754;2023-06-22T04:59:58;25.42;;;13.50;;
64615;SDS011;51027;42.162;24.754;2023-06-22T05:02:36;22.55;;;13.23;;
64615;SDS011;51027;42.162;24.754;2023-06-22T05:05:02;22.08;;;13.38;;
64615;SDS011;51027;42.162;24.754;2023-06-22T05:07:31;21.73;;;13.10;;
64615;SDS011;51027;42.162;24.754;2023-06-22T05:10:00;24.92;;;13.15;;
64615;SDS011;51027;42.162;24.754;2023-06-22T05:12:29;21.70;;;13.07;;
64615;SDS011;51027;42.162;24.754;2023-06-22T05:14:55;24.38;;;13.73;;
64615;SDS011;51027;42.162;24.754;2023-06-22T05:17:21;20.90;;;11.88;;
64615;SDS011;51027;42.162;24.754;2023-06-22T05:19:47;22.27;;;12.50;;
64615;SDS011;51027;42.162;24.754;2023-06-22T05:22:15;20.33;;;12.20;;
64615;SDS011;51027;42.162;24.754;2023-06-22T05:24:41;21.40;;;12.05;;
64615;SDS011;51027;42.162;24.754;2023-06-22T05:27:07;25.48;;;11.88;;
64615;SDS011;51027;42.162;24.754;2023-06-22T05:29:33;20.38;;;11.80;;
64615;SDS011;51027;42.162;24.754;2023-06-22T05:31:59;21.35;;;12.05;;
64615;SDS011;51027;42.162;24.754;2023-06-22T05:34:24;24.23;;;12.57;;
64615;SDS011;51027;42.162;24.754;2023-06-22T05:36:50;23.17;;;12.50;;
64615;SDS011;51027;42.162;24.754;2023-06-22T05:39:18;22.20;;;12.02;;
64615;SDS011;51027;42.162;24.754;2023-06-22T05:41:44;18.50;;;11.38;;
64615;SDS011;51027;42.162;24.754;2023-06-22T05:44:10;21.60;;;10.98;;
64615;SDS011;51027;42.162;24.754;2023-06-22T05:46:36;20.00;;;11.45;;
64615;SDS011;51027;42.162;24.754;2023-06-22T05:49:01;18.83;;;10.68;;
64615;SDS011;51027;42.162;24.754;2023-06-22T05:51:27;21.13;;;11.65;;
64615;SDS011;51027;42.162;24.754;2023-06-22T05:53:52;25.55;;;12.40;;
64615;SDS011;51027;42.162;24.754;2023-06-22T05:56:18;20.05;;;11.15;;
64615;SDS011;51027;42.162;24.754;2023-06-22T05:58:43;40.00;;;14.18;;
64615;SDS011;51027;42.162;24.754;2023-06-22T06:01:09;23.25;;;11.75;;
64615;SDS011;51027;42.162;24.754;2023-06-22T06:03:34;24.45;;;12.25;;
64615;SDS011;51027;42.162;24.754;2023-06-22T06:06:06;19.13;;;10.65;;
64615;SDS011;51027;42.162;24.754;2023-06-22T06:08:32;20.50;;;11.85;;
64615;SDS011;51027;42.162;24.754;2023-06-22T06:11:00;21.13;;;11.52;;
64615;SDS011;51027;42.162;24.754;2023-06-22T06:13:26;19.85;;;11.40;;
64615;SDS011;51027;42.162;24.754;2023-06-22T06:15:51;20.05;;;11.20;;
64615;SDS011;51027;42.162;24.754;2023-06-22T06:18:19;21.17;;;10.55;;
64615;SDS011;51027;42.162;24.754;2023-06-22T06:20:45;18.55;;;10.63;;
64615;SDS011;51027;42.162;24.754;2023-06-22T06:23:10;20.17;;;11.32;;
64615;SDS011;51027;42.162;24.754;2023-06-22T06:25:36;17.77;;;10.98;;
64615;SDS011;51027;42.162;24.754;2023-06-22T06:28:01;19.08;;;10.77;;
64615;SDS011;51027;42.162;24.754;2023-06-22T06:30:27;19.65;;;11.07;;
64615;SDS011;51027;42.162;24.754;2023-06-22T06:32:52;23.55;;;11.27;;
64615;SDS011;51027;42.162;24.754;2023-06-22T06:35:18;20.02;;;11.10;;
64615;SDS011;51027;42.162;24.754;2023-06-22T06:37:44;19.80;;;11.57;;
64615;SDS011;51027;42.162;24.754;2023-06-22T06:40:12;19.77;;;10.85;;
64615;SDS011;51027;42.162;24.754;2023-06-22T06:42:38;21.77;;;11.55;;
64615;SDS011;51027;42.162;24.754;2023-06-22T06:45:28;19.67;;;11.48;;
64615;SDS011;51027;42.162;24.754;2023-06-22T06:47:55;20.08;;;10.93;;
64615;SDS011;51027;42.162;24.754;2023-06-22T06:50:21;21.20;;;11.15;;
64615;SDS011;51027;42.162;24.754;2023-06-22T06:52:47;18.63;;;10.75;;
64615;SDS011;51027;42.162;24.754;2023-06-22T06:55:12;22.65;;;11.82;;
64615;SDS011;51027;42.162;24.754;2023-06-22T06:57:39;21.75;;;11.57;;
64615;SDS011;51027;42.162;24.754;2023-06-22T07:00:05;20.25;;;11.40;;
64615;SDS011;51027;42.162;24.754;2023-06-22T07:02:37;22.35;;;11.43;;
64615;SDS011;51027;42.162;24.754;2023-06-22T07:05:05;20.63;;;11.33;;
64615;SDS011;51027;42.162;24.754;2023-06-22T07:07:30;19.20;;;11.25;;
64615;SDS011;51027;42.162;24.754;2023-06-22T07:09:56;18.67;;;11.15;;
64615;SDS011;51027;42.162;24.754;2023-06-22T07:12:22;20.17;;;11.23;;
64615;SDS011;51027;42.162;24.754;2023-06-22T07:14:48;18.02;;;10.25;;
64615;SDS011;51027;42.162;24.754;2023-06-22T07:17:13;20.15;;;10.90;;
64615;SDS011;51027;42.162;24.754;2023-06-22T07:19:39;18.92;;;10.43;;
64615;SDS011;51027;42.162;24.754;2023-06-22T07:22:05;18.17;;;10.80;;
64615;SDS011;51027;42.162;24.754;2023-06-22T07:24:31;18.70;;;10.60;;
64615;SDS011;51027;42.162;24.754;2023-06-22T07:26:57;18.58;;;10.35;;
64615;SDS011;51027;42.162;24.754;2023-06-22T07:29:24;18.83;;;10.70;;
64615;SDS011;51027;42.162;24.754;2023-06-22T07:31:50;18.23;;;10.48;;
64615;SDS011;51027;42.162;24.754;2023-06-22T07:36:44;19.05;;;10.63;;
64615;SDS011;51027;42.162;24.754;2023-06-22T07:39:11;19.67;;;10.95;;
64615;SDS011;51027;42.162;24.754;2023-06-22T07:41:38;18.48;;;10.60;;
64615;SDS011;51027;42.162;24.754;2023-06-22T07:44:06;19.40;;;10.80;;
64615;SDS011;51027;42.162;24.754;2023-06-22T07:46:33;19.30;;;11.02;;
64615;SDS011;51027;42.162;24.754;2023-06-22T07:48:59;20.20;;;10.65;;
64615;SDS011;51027;42.162;24.754;2023-06-22T07:51:27;18.90;;;10.52;;
64615;SDS011;51027;42.162;24.754;2023-06-22T07:53:56;18.60;;;10.40;;
64615;SDS011;51027;42.162;24.754;2023-06-22T07:56:21;19.80;;;10.05;;
64615;SDS011;51027;42.162;24.754;2023-06-22T07:58:47;17.45;;;10.07;;
64615;SDS011;51027;42.162;24.754;2023-06-22T08:01:15;18.05;;;10.82;;
64615;SDS011;51027;42.162;24.754;2023-06-22T08:03:41;20.50;;;10.57;;
64615;SDS011;51027;42.162;24.754;2023-06-22T08:06:08;20.77;;;11.23;;
64615;SDS011;51027;42.162;24.754;2023-06-22T08:08:34;19.58;;;10.80;;
64615;SDS011;51027;42.162;24.754;2023-06-22T08:11:00;17.95;;;10.48;;
64615;SDS011;51027;42.162;24.754;2023-06-22T08:13:26;19.70;;;10.30;;
64615;SDS011;51027;42.162;24.754;2023-06-22T08:15:51;17.70;;;9.80;;
64615;SDS011;51027;42.162;24.754;2023-06-22T08:18:16;18.50;;;10.25;;
64615;SDS011;51027;42.162;24.754;2023-06-22T08:20:42;17.77;;;10.45;;
64615;SDS011;51027;42.162;24.754;2023-06-22T08:23:07;18.27;;;10.32;;
64615;SDS011;51027;42.162;24.754;2023-06-22T08:25:34;18.00;;;10.18;;
64615;SDS011;51027;42.162;24.754;2023-06-22T08:28:00;17.95;;;9.80;;
64615;SDS011;51027;42.162;24.754;2023-06-22T08:30:26;16.98;;;8.70;;
64615;SDS011;51027;42.162;24.754;2023-06-22T08:32:52;17.88;;;9.23;;
64615;SDS011;51027;42.162;24.754;2023-06-22T08:35:18;17.60;;;9.38;;
64615;SDS011;51027;42.162;24.754;2023-06-22T08:37:44;18.90;;;9.68;;
64615;SDS011;51027;42.162;24.754;2023-06-22T08:40:17;19.00;;;9.55;;
64615;SDS011;51027;42.162;24.754;2023-06-22T08:42:44;16.45;;;8.85;;
64615;SDS011;51027;42.162;24.754;2023-06-22T08:45:11;21.80;;;10.07;;
64615;SDS011;51027;42.162;24.754;2023-06-22T08:47:37;16.80;;;9.30;;
64615;SDS011;51027;42.162;24.754;2023-06-22T08:50:03;16.92;;;9.10;;
64615;SDS011;51027;42.162;24.754;2023-06-22T08:52:29;17.02;;;9.35;;
64615;SDS011;51027;42.162;24.754;2023-06-22T08:54:54;16.05;;;8.27;;
64615;SDS011;51027;42.162;24.754;2023-06-22T08:57:20;16.20;;;9.25;;
64615;SDS011;51027;42.162;24.754;2023-06-22T08:59:46;17.73;;;8.70;;
64615;SDS011;51027;42.162;24.754;2023-06-22T09:02:11;16.27;;;9.35;;
64615;SDS011;51027;42.162;24.754;2023-06-22T09:04:37;17.33;;;9.25;;
64615;SDS011;51027;42.162;24.754;2023-06-22T09:07:02;16.77;;;9.40;;
64615;SDS011;51027;42.162;24.754;2023-06-22T09:09:30;16.92;;;8.35;;
64615;SDS011;51027;42.162;24.754;2023-06-22T09:11:58;19.10;;;9.30;;
64615;SDS011;51027;42.162;24.754;2023-06-22T09:14:24;18.65;;;9.45;;
64615;SDS011;51027;42.162;24.754;2023-06-22T09:16:49;15.38;;;8.40;;
64615;SDS011;51027;42.162;24.754;2023-06-22T09:19:14;18.42;;;9.80;;
64615;SDS011;51027;42.162;24.754;2023-06-22T09:21:40;15.93;;;8.00;;
64615;SDS011;51027;42.162;24.754;2023-06-22T09:24:05;16.95;;;9.00;;
64615;SDS011;51027;42.162;24.754;2023-06-22T09:26:31;18.38;;;8.93;;
64615;SDS011;51027;42.162;24.754;2023-06-22T09:28:57;16.65;;;8.50;;
64615;SDS011;51027;42.162;24.754;2023-06-22T09:31:22;16.80;;;9.05;;
64615;SDS011;51027;42.162;24.754;2023-06-22T09:33:52;17.90;;;8.90;;
64615;SDS011;51027;42.162;24.754;2023-06-22T09:36:19;16.83;;;8.75;;
64615;SDS011;51027;42.162;24.754;2023-06-22T09:38:45;17.67;;;8.82;;
64615;SDS011;51027;42.162;24.754;2023-06-22T09:41:10;15.77;;;8.13;;
64615;SDS011;51027;42.162;24.754;2023-06-22T09:43:36;17.25;;;8.88;;
64615;SDS011;51027;42.162;24.754;2023-06-22T09:46:02;16.38;;;8.52;;
64615;SDS011;51027;42.162;24.754;2023-06-22T09:48:28;17.67;;;8.18;;
64615;SDS011;51027;42.162;24.754;2023-06-22T09:50:55;15.82;;;8.32;;
64615;SDS011;51027;42.162;24.754;2023-06-22T09:53:21;15.55;;;8.38;;
64615;SDS011;51027;42.162;24.754;2023-06-22T09:55:46;15.60;;;8.45;;
64615;SDS011;51027;42.162;24.754;2023-06-22T09:58:12;16.33;;;8.45;;
64615;SDS011;51027;42.162;24.754;2023-06-22T10:00:37;16.92;;;8.65;;
64615;SDS011;51027;42.162;24.754;2023-06-22T10:03:03;24.83;;;8.82;;
64615;SDS011;51027;42.162;24.754;2023-06-22T10:05:28;15.52;;;8.23;;
64615;SDS011;51027;42.162;24.754;2023-06-22T10:07:53;16.02;;;8.50;;
64615;SDS011;51027;42.162;24.754;2023-06-22T10:10:19;15.95;;;8.25;;
64615;SDS011;51027;42.162;24.754;2023-06-22T10:12:54;15.75;;;8.30;;
64615;SDS011;51027;42.162;24.754;2023-06-22T10:15:20;15.77;;;8.23;;
64615;SDS011;51027;42.162;24.754;2023-06-22T10:17:46;16.42;;;8.32;;
64615;SDS011;51027;42.162;24.754;2023-06-22T10:20:15;15.50;;;7.90;;
64615;SDS011;51027;42.162;24.754;2023-06-22T10:22:43;15.77;;;8.45;;
64615;SDS011;51027;42.162;24.754;2023-06-22T10:25:12;15.70;;;9.07;;
64615;SDS011;51027;42.162;24.754;2023-06-22T10:27:38;15.90;;;8.55;;
64615;SDS011;51027;42.162;24.754;2023-06-22T10:32:33;16.30;;;9.25;;
64615;SDS011;51027;42.162;24.754;2023-06-22T10:34:58;16.85;;;8.38;;
64615;SDS011;51027;42.162;24.754;2023-06-22T10:37:23;16.23;;;8.43;;
64615;SDS011;51027;42.162;24.754;2023-06-22T10:39:49;15.65;;;7.93;;
64615;SDS011;51027;42.162;24.754;2023-06-22T10:42:14;16.75;;;9.13;;
64615;SDS011;51027;42.162;24.754;2023-06-22T10:44:40;15.98;;;8.27;;
64615;SDS011;51027;42.162;24.754;2023-06-22T10:47:06;16.20;;;8.73;;
64615;SDS011;51027;42.162;24.754;2023-06-22T10:49:32;17.17;;;8.73;;
64615;SDS011;51027;42.162;24.754;2023-06-22T10:51:57;16.80;;;8.55;;
64615;SDS011;51027;42.162;24.754;2023-06-22T10:54:23;16.70;;;8.65;;
64615;SDS011;51027;42.162;24.754;2023-06-22T10:56:48;18.83;;;10.13;;
64615;SDS011;51027;42.162;24.754;2023-06-22T10:59:14;17.70;;;8.55;;
64615;SDS011;51027;42.162;24.754;2023-06-22T11:01:39;17.05;;;8.25;;
64615;SDS011;51027;42.162;24.754;2023-06-22T11:04:05;16.52;;;8.57;;
64615;SDS011;51027;42.162;24.754;2023-06-22T11:06:30;14.77;;;7.90;;
64615;SDS011;51027;42.162;24.754;2023-06-22T11:08:55;18.55;;;8.90;;
64615;SDS011;51027;42.162;24.754;2023-06-22T11:11:21;16.48;;;7.95;;
64615;SDS011;51027;42.162;24.754;2023-06-22T11:13:46;17.63;;;8.82;;
64615;SDS011;51027;42.162;24.754;2023-06-22T11:16:12;17.08;;;8.48;;
64615;SDS011;51027;42.162;24.754;2023-06-22T11:18:37;15.55;;;7.35;;
64615;SDS011;51027;42.162;24.754;2023-06-22T11:21:03;15.45;;;8.05;;
64615;SDS011;51027;42.162;24.754;2023-06-22T11:23:28;16.33;;;8.40;;
64615;SDS011;51027;42.162;24.754;2023-06-22T11:25:54;15.98;;;8.23;;
64615;SDS011;51027;42.162;24.754;2023-06-22T11:28:20;15.73;;;7.97;;
64615;SDS011;51027;42.162;24.754;2023-06-22T11:30:45;16.85;;;8.88;;
64615;SDS011;51027;42.162;24.754;2023-06-22T11:33:11;17.25;;;8.75;;
64615;SDS011;51027;42.162;24.754;2023-06-22T11:35:37;16.15;;;8.13;;
64615;SDS011;51027;42.162;24.754;2023-06-22T11:38:03;19.95;;;9.80;;
64615;SDS011;51027;42.162;24.754;2023-06-22T11:40:30;16.35;;;8.40;;
64615;SDS011;51027;42.162;24.754;2023-06-22T11:42:55;16.90;;;9.02;;
64615;SDS011;51027;42.162;24.754;2023-06-22T11:45:20;16.17;;;8.32;;
64615;SDS011;51027;42.162;24.754;2023-06-22T11:47:46;16.67;;;8.00;;
64615;SDS011;51027;42.162;24.754;2023-06-22T11:50:12;15.52;;;8.32;;
64615;SDS011;51027;42.162;24.754;2023-06-22T11:52:37;16.10;;;8.45;;
64615;SDS011;51027;42.162;24.754;2023-06-22T11:55:03;16.50;;;8.43;;
64615;SDS011;51027;42.162;24.754;2023-06-22T11:57:32;18.73;;;9.95;;
64615;SDS011;51027;42.162;24.754;2023-06-22T11:59:59;19.25;;;8.80;;
64615;SDS011;51027;42.162;24.754;2023-06-22T12:02:31;15.93;;;8.57;;
64615;SDS011;51027;42.162;24.754;2023-06-22T12:04:57;16.23;;;8.10;;
64615;SDS011;51027;42.162;24.754;2023-06-22T12:07:23;17.55;;;8.80;;
64615;SDS011;51027;42.162;24.754;2023-06-22T12:09:49;16.48;;;8.65;;
64615;SDS011;51027;42.162;24.754;2023-06-22T12:12:14;16.10;;;8.75;;
64615;SDS011;51027;42.162;24.754;2023-06-22T12:14:40;17.85;;;8.45;;
64615;SDS011;51027;42.162;24.754;2023-06-22T12:17:05;16.35;;;8.98;;
64615;SDS011;51027;42.162;24.754;2023-06-22T12:19:31;17.42;;;8.50;;
64615;SDS011;51027;42.162;24.754;2023-06-22T12:21:57;18.98;;;9.35;;
64615;SDS011;51027;42.162;24.754;2023-06-22T12:24:22;17.30;;;9.07;;
64615;SDS011;51027;42.162;24.754;2023-06-22T12:26:48;15.98;;;8.60;;
64615;SDS011;51027;42.162;24.754;2023-06-22T12:29:14;15.60;;;8.30;;
64615;SDS011;51027;42.162;24.754;2023-06-22T12:31:40;17.58;;;8.48;;
64615;SDS011;51027;42.162;24.754;2023-06-22T12:34:06;16.35;;;8.70;;
64615;SDS011;51027;42.162;24.754;2023-06-22T12:36:32;16.40;;;8.52;;
64615;SDS011;51027;42.162;24.754;2023-06-22T12:38:57;17.33;;;8.73;;
64615;SDS011;51027;42.162;24.754;2023-06-22T12:41:23;17.52;;;8.52;;
64615;SDS011;51027;42.162;24.754;2023-06-22T12:43:48;19.42;;;8.98;;
64615;SDS011;51027;42.162;24.754;2023-06-22T12:46:14;17.67;;;9.02;;
64615;SDS011;51027;42.162;24.754;2023-06-22T12:48:39;17.98;;;9.02;;
64615;SDS011;51027;42.162;24.754;2023-06-22T12:51:07;16.87;;;9.07;;
64615;SDS011;51027;42.162;24.754;2023-06-22T12:53:34;17.50;;;8.77;;
64615;SDS011;51027;42.162;24.754;2023-06-22T12:55:59;15.98;;;8.15;;
64615;SDS011;51027;42.162;24.754;2023-06-22T12:58:25;16.98;;;8.70;;
64615;SDS011;51027;42.162;24.754;2023-06-22T13:00:50;15.30;;;8.10;;
64615;SDS011;51027;42.162;24.754;2023-06-22T13:03:16;17.92;;;8.50;;
64615;SDS011;51027;42.162;24.754;2023-06-22T13:05:41;16.65;;;8.77;;
64615;SDS011;51027;42.162;24.754;2023-06-22T13:08:07;16.48;;;8.73;;
64615;SDS011;51027;42.162;24.754;2023-06-22T13:10:33;16.20;;;8.98;;
64615;SDS011;51027;42.162;24.754;2023-06-22T13:13:01;16.75;;;9.52;;
64615;SDS011;51027;42.162;24.754;2023-06-22T13:15:27;16.52;;;8.75;;
64615;SDS011;51027;42.162;24.754;2023-06-22T13:17:53;16.48;;;9.00;;
64615;SDS011;51027;42.162;24.754;2023-06-22T13:20:22;18.75;;;9.43;;
64615;SDS011;51027;42.162;24.754;2023-06-22T13:22:50;20.25;;;9.55;;
64615;SDS011;51027;42.162;24.754;2023-06-22T13:25:16;16.73;;;8.98;;
64615;SDS011;51027;42.162;24.754;2023-06-22T13:27:44;15.73;;;8.70;;
64615;SDS011;51027;42.162;24.754;2023-06-22T13:30:10;17.48;;;8.88;;
64615;SDS011;51027;42.162;24.754;2023-06-22T13:32:36;18.27;;;9.23;;
64615;SDS011;51027;42.162;24.754;2023-06-22T13:35:01;18.27;;;9.88;;
64615;SDS011;51027;42.162;24.754;2023-06-22T13:37:27;19.80;;;10.15;;
64615;SDS011;51027;42.162;24.754;2023-06-22T13:39:52;20.05;;;11.30;;
64615;SDS011;51027;42.162;24.754;2023-06-22T13:42:18;17.83;;;8.95;;
64615;SDS011;51027;42.162;24.754;2023-06-22T13:44:43;24.13;;;10.52;;
64615;SDS011;51027;42.162;24.754;2023-06-22T13:47:09;18.08;;;9.43;;
64615;SDS011;51027;42.162;24.754;2023-06-22T13:49:34;18.77;;;9.27;;
64615;SDS011;51027;42.162;24.754;2023-06-22T13:52:00;16.77;;;8.95;;
64615;SDS011;51027;42.162;24.754;2023-06-22T13:54:25;16.85;;;8.75;;
64615;SDS011;51027;42.162;24.754;2023-06-22T13:56:51;17.05;;;8.52;;
64615;SDS011;51027;42.162;24.754;2023-06-22T13:59:16;16.48;;;8.80;;
64615;SDS011;51027;42.162;24.754;2023-06-22T14:01:42;19.52;;;9.25;;
64615;SDS011;51027;42.162;24.754;2023-06-22T14:04:08;19.45;;;9.80;;
64615;SDS011;51027;42.162;24.754;2023-06-22T14:06:34;17.38;;;9.35;;
64615;SDS011;51027;42.162;24.754;2023-06-22T14:08:59;17.90;;;9.48;;
64615;SDS011;51027;42.162;24.754;2023-06-22T14:11:25;17.52;;;8.85;;
64615;SDS011;51027;42.162;24.754;2023-06-22T14:13:50;18.77;;;8.82;;
64615;SDS011;51027;42.162;24.754;2023-06-22T14:16:16;16.40;;;10.10;;
64615;SDS011;51027;42.162;24.754;2023-06-22T14:18:42;16.55;;;9.23;;
64615;SDS011;51027;42.162;24.754;2023-06-22T14:21:07;16.05;;;9.27;;
64615;SDS011;51027;42.162;24.754;2023-06-22T14:23:33;18.17;;;9.13;;
64615;SDS011;51027;42.162;24.754;2023-06-22T14:25:58;17.95;;;9.52;;
64615;SDS011;51027;42.162;24.754;2023-06-22T14:28:24;18.17;;;8.93;;
64615;SDS011;51027;42.162;24.754;2023-06-22T14:30:49;17.63;;;9.43;;
64615;SDS011;51027;42.162;24.754;2023-06-22T14:33:14;16.95;;;9.80;;
64615;SDS011;51027;42.162;24.754;2023-06-22T14:35:40;17.55;;;9.43;;
64615;SDS011;51027;42.162;24.754;2023-06-22T14:38:05;17.27;;;9.68;;
64615;SDS011;51027;42.162;24.754;2023-06-22T14:40:31;19.08;;;9.93;;
64615;SDS011;51027;42.162;24.754;2023-06-22T14:42:56;17.73;;;10.43;;
64615;SDS011;51027;42.162;24.754;2023-06-22T14:45:22;18.70;;;10.07;;
64615;SDS011;51027;42.162;24.754;2023-06-22T14:47:48;17.33;;;9.60;;
64615;SDS011;51027;42.162;24.754;2023-06-22T14:50:14;18.38;;;10.27;;
64615;SDS011;51027;42.162;24.754;2023-06-22T14:52:39;17.83;;;10.50;;
64615;SDS011;51027;42.162;24.754;2023-06-22T14:55:05;19.33;;;10.70;;
64615;SDS011;51027;42.162;24.754;2023-06-22T14:57:31;19.27;;;10.82;;
64615;SDS011;51027;42.162;24.754;2023-06-22T14:59:57;17.52;;;9.85;;
64615;SDS011;51027;42.162;24.754;2023-06-22T15:02:22;18.08;;;10.45;;
64615;SDS011;51027;42.162;24.754;2023-06-22T15:04:51;18.83;;;10.50;;
64615;SDS011;51027;42.162;24.754;2023-06-22T15:07:18;18.65;;;10.77;;
64615;SDS011;51027;42.162;24.754;2023-06-22T15:09:43;23.38;;;14.88;;
64615;SDS011;51027;42.162;24.754;2023-06-22T15:12:10;19.77;;;10.90;;
64615;SDS011;51027;42.162;24.754;2023-06-22T15:14:40;20.10;;;10.93;;
64615;SDS011;51027;42.162;24.754;2023-06-22T15:17:08;20.13;;;11.32;;
64615;SDS011;51027;42.162;24.754;2023-06-22T15:22:01;18.35;;;10.75;;
64615;SDS011;51027;42.162;24.754;2023-06-22T15:24:27;18.17;;;10.35;;
64615;SDS011;51027;42.162;24.754;2023-06-22T15:26:52;18.08;;;10.23;;
64615;SDS011;51027;42.162;24.754;2023-06-22T15:29:17;18.35;;;10.73;;
64615;SDS011;51027;42.162;24.754;2023-06-22T15:31:43;18.15;;;10.70;;
64615;SDS011;51027;42.162;24.754;2023-06-22T15:34:08;17.50;;;10.07;;
64615;SDS011;51027;42.162;24.754;2023-06-22T15:36:34;19.45;;;10.85;;
64615;SDS011;51027;42.162;24.754;2023-06-22T15:39:00;20.30;;;11.13;;
64615;SDS011;51027;42.162;24.754;2023-06-22T15:41:27;20.73;;;11.88;;
64615;SDS011;51027;42.162;24.754;2023-06-22T15:43:53;21.15;;;12.05;;
64615;SDS011;51027;42.162;24.754;2023-06-22T15:46:19;20.92;;;11.65;;
64615;SDS011;51027;42.162;24.754;2023-06-22T15:48:44;20.42;;;11.68;;
64615;SDS011;51027;42.162;24.754;2023-06-22T15:51:09;19.77;;;12.07;;
64615;SDS011;51027;42.162;24.754;2023-06-22T15:53:35;21.05;;;12.27;;
64615;SDS011;51027;42.162;24.754;2023-06-22T15:56:01;19.98;;;11.77;;
64615;SDS011;51027;42.162;24.754;2023-06-22T15:58:26;19.52;;;11.88;;
64615;SDS011;51027;42.162;24.754;2023-06-22T16:00:52;19.17;;;11.02;;
64615;SDS011;51027;42.162;24.754;2023-06-22T16:03:17;18.88;;;10.27;;
64615;SDS011;51027;42.162;24.754;2023-06-22T16:05:42;19.75;;;11.68;;
64615;SDS011;51027;42.162;24.754;2023-06-22T16:08:11;21.85;;;12.30;;
64615;SDS011;51027;42.162;24.754;2023-06-22T16:10:38;21.30;;;11.90;;
64615;SDS011;51027;42.162;24.754;2023-06-22T16:13:04;18.17;;;11.15;;
64615;SDS011;51027;42.162;24.754;2023-06-22T16:15:29;20.58;;;12.45;;
64615;SDS011;51027;42.162;24.754;2023-06-22T16:17:55;21.08;;;11.60;;
64615;SDS011;51027;42.162;24.754;2023-06-22T16:20:20;20.33;;;12.43;;
64615;SDS011;51027;42.162;24.754;2023-06-22T16:22:46;21.33;;;12.13;;
64615;SDS011;51027;42.162;24.754;2023-06-22T16:25:11;19.23;;;11.35;;
64615;SDS011;51027;42.162;24.754;2023-06-22T16:27:38;21.52;;;11.48;;
64615;SDS011;51027;42.162;24.754;2023-06-22T16:30:04;20.55;;;10.90;;
64615;SDS011;51027;42.162;24.754;2023-06-22T16:32:31;19.70;;;11.75;;
64615;SDS011;51027;42.162;24.754;2023-06-22T16:34:56;21.10;;;11.85;;
64615;SDS011;51027;42.162;24.754;2023-06-22T16:37:22;19.92;;;12.40;;
64615;SDS011;51027;42.162;24.754;2023-06-22T16:39:47;21.05;;;12.00;;
64615;SDS011;51027;42.162;24.754;2023-06-22T16:42:13;20.77;;;11.88;;
64615;SDS011;51027;42.162;24.754;2023-06-22T16:44:41;22.35;;;12.13;;
64615;SDS011;51027;42.162;24.754;2023-06-22T16:47:07;20.60;;;11.75;;
64615;SDS011;51027;42.162;24.754;2023-06-22T16:49:35;20.23;;;11.57;;
64615;SDS011;51027;42.162;24.754;2023-06-22T16:52:02;18.80;;;10.75;;
64615;SDS011;51027;42.162;24.754;2023-06-22T16:54:31;22.90;;;12.32;;
64615;SDS011;51027;42.162;24.754;2023-06-22T16:57:00;20.25;;;11.98;;
64615;SDS011;51027;42.162;24.754;2023-06-22T16:59:27;19.65;;;11.57;;
64615;SDS011;51027;42.162;24.754;2023-06-22T17:01:53;19.92;;;11.82;;
64615;SDS011;51027;42.162;24.754;2023-06-22T17:04:23;20.13;;;10.93;;
64615;SDS011;51027;42.162;24.754;2023-06-22T17:06:55;19.23;;;11.13;;
64615;SDS011;51027;42.162;24.754;2023-06-22T17:09:25;19.77;;;10.73;;
64615;SDS011;51027;42.162;24.754;2023-06-22T17:11:54;17.75;;;10.30;;
64615;SDS011;51027;42.162;24.754;2023-06-22T17:14:20;20.38;;;10.75;;
64615;SDS011;51027;42.162;24.754;2023-06-22T17:16:46;18.40;;;10.68;;
64615;SDS011;51027;42.162;24.754;2023-06-22T17:19:13;20.10;;;11.05;;
64615;SDS011;51027;42.162;24.754;2023-06-22T17:21:45;18.73;;;10.75;;
64615;SDS011;51027;42.162;24.754;2023-06-22T17:24:12;21.27;;;10.88;;
64615;SDS011;51027;42.162;24.754;2023-06-22T17:26:40;19.33;;;11.73;;
64615;SDS011;51027;42.162;24.754;2023-06-22T17:29:07;19.70;;;11.38;;
64615;SDS011;51027;42.162;24.754;2023-06-22T17:31:37;19.90;;;11.70;;
64615;SDS011;51027;42.162;24.754;2023-06-22T17:34:07;18.73;;;10.95;;
64615;SDS011;51027;42.162;24.754;2023-06-22T17:36:39;20.90;;;11.13;;
64615;SDS011;51027;42.162;24.754;2023-06-22T17:39:13;20.33;;;10.85;;
64615;SDS011;51027;42.162;24.754;2023-06-22T17:41:40;21.98;;;11.63;;
64615;SDS011;51027;42.162;24.754;2023-06-22T17:44:07;20.15;;;11.18;;
64615;SDS011;51027;42.162;24.754;2023-06-22T17:46:36;19.67;;;10.98;;